Time;durP1;ratioP1;P1;durP2;ratioP2;P2;SDS_P1;SDS_P2;PMS_P1;PMS_P2;Temp;Humidity;BMP_temperature;BMP_pressure;BME280_temperature;BME280_humidity;BME280_pressure;Samples;Min_cycle;Max_cycle;Signal;HPM_P1;HPM_P2
2023/08/26 00:02:26;;;;;;;13.93;12.73;;;20.60;99.90;;;;;;5052431;28;20761;-54
2023/08/26 00:04:53;;;;;;;11.13;10.03;;;20.60;99.90;;;;;;5052932;28;20205;-53
2023/08/26 00:07:20;;;;;;;11.90;10.73;;;20.60;99.90;;;;;;5052901;28;20340;-54
2023/08/26 00:09:47;;;;;;;11.57;10.67;;;20.50;99.90;;;;;;5048597;28;20252;-54
2023/08/26 00:12:16;;;;;;;13.20;12.03;;;20.50;99.90;;;;;;5050935;28;20198;-54
2023/08/26 00:14:43;;;;;;;12.97;11.83;;;20.50;99.90;;;;;;5052796;28;20225;-54
2023/08/26 00:17:10;;;;;;;11.97;10.77;;;20.50;99.90;;;;;;5052781;28;20626;-54
2023/08/26 00:19:37;;;;;;;11.83;10.70;;;20.50;99.90;;;;;;5052804;28;20228;-53
2023/08/26 00:22:05;;;;;;;12.30;10.50;;;20.50;99.90;;;;;;5052281;28;20222;-54
2023/08/26 00:24:32;;;;;;;11.07;10.10;;;20.60;99.90;;;;;;5051535;28;20640;-54
2023/08/26 00:26:59;;;;;;;12.10;11.10;;;20.50;99.90;;;;;;5052629;28;20256;-54
2023/08/26 00:29:28;;;;;;;11.43;10.43;;;20.40;99.90;;;;;;5052529;28;20222;-54
2023/08/26 00:31:55;;;;;;;10.67;9.60;;;20.40;99.90;;;;;;5052567;28;20252;-53
2023/08/26 00:34:22;;;;;;;12.07;10.73;;;20.40;99.90;;;;;;5051841;28;20259;-53
2023/08/26 00:36:49;;;;;;;9.97;9.23;;;20.40;99.90;;;;;;5051170;28;20202;-54
2023/08/26 00:39:16;;;;;;;10.73;9.63;;;20.40;99.90;;;;;;5051766;28;20218;-53
2023/08/26 00:41:43;;;;;;;12.53;10.63;;;20.40;99.90;;;;;;5050290;28;20254;-53
2023/08/26 00:44:11;;;;;;;11.87;10.90;;;20.30;99.90;;;;;;5050174;28;20198;-54
2023/08/26 00:46:40;;;;;;;12.90;10.77;;;20.30;99.90;;;;;;5052551;28;20574;-53
2023/08/26 00:49:09;;;;;;;10.93;10.03;;;20.30;99.90;;;;;;5052102;28;20276;-54
2023/08/26 00:51:37;;;;;;;10.83;9.93;;;20.30;99.90;;;;;;5052733;28;20691;-53
2023/08/26 00:54:05;;;;;;;9.30;8.37;;;20.30;99.90;;;;;;5052049;28;20278;-53
2023/08/26 00:56:33;;;;;;;9.50;8.27;;;20.30;99.90;;;;;;5051796;28;20205;-54
2023/08/26 00:59:00;;;;;;;9.03;8.30;;;20.10;99.90;;;;;;5052286;28;20276;-53
2023/08/26 01:01:30;;;;;;;8.40;7.53;;;20.10;99.90;;;;;;5050604;28;20297;-54
2023/08/26 01:03:59;;;;;;;9.63;8.83;;;20.10;99.90;;;;;;5051591;28;20202;-54
2023/08/26 01:06:26;;;;;;;9.43;8.60;;;20.00;99.90;;;;;;5052009;28;20206;-53
2023/08/26 01:08:54;;;;;;;10.20;9.40;;;20.10;99.90;;;;;;5052249;28;20719;-54
2023/08/26 01:11:29;;;;;;;8.93;7.93;;;20.00;99.90;;;;;;5052685;28;20210;-53
2023/08/26 01:14:08;;;;;;;10.30;7.93;;;20.00;99.90;;;;;;5049799;28;20213;-53
2023/08/26 01:16:35;;;;;;;9.17;8.37;;;19.90;99.90;;;;;;5058702;28;20202;-54
2023/08/26 01:19:05;;;;;;;8.70;7.80;;;19.90;99.90;;;;;;5051820;28;20226;-53
2023/08/26 01:21:36;;;;;;;9.30;8.40;;;19.90;99.90;;;;;;5051032;28;20205;-53
2023/08/26 01:24:06;;;;;;;9.47;8.57;;;19.80;99.90;;;;;;5051311;28;20275;-53
2023/08/26 01:26:33;;;;;;;9.93;9.20;;;19.80;99.90;;;;;;5050961;28;20206;-54
2023/08/26 01:29:00;;;;;;;8.97;8.07;;;19.80;99.90;;;;;;5051759;28;20224;-54
2023/08/26 01:31:32;;;;;;;9.53;8.63;;;19.80;99.90;;;;;;5050265;28;20205;-53
2023/08/26 01:34:12;;;;;;;10.37;9.47;;;19.80;99.90;;;;;;5051041;28;20197;-54
2023/08/26 01:36:44;;;;;;;9.57;8.87;;;19.80;99.90;;;;;;5050891;28;20202;-54
2023/08/26 01:39:15;;;;;;;9.43;8.80;;;19.80;99.90;;;;;;5050957;28;20221;-53
2023/08/26 01:41:45;;;;;;;8.63;7.93;;;19.90;99.90;;;;;;5051712;28;20412;-53
2023/08/26 01:44:13;;;;;;;10.00;8.90;;;19.80;99.90;;;;;;5050005;28;20194;-53
2023/08/26 01:46:41;;;;;;;9.80;8.13;;;19.70;99.90;;;;;;5050366;28;20292;-54
2023/08/26 01:49:08;;;;;;;8.97;8.20;;;19.70;99.90;;;;;;5051467;28;20217;-53
2023/08/26 01:51:35;;;;;;;9.90;9.13;;;19.80;99.90;;;;;;5050631;28;20653;-54
2023/08/26 01:54:03;;;;;;;8.40;7.60;;;19.80;99.90;;;;;;5050710;28;20724;-54
2023/08/26 01:56:31;;;;;;;10.33;9.43;;;19.80;99.90;;;;;;5051484;28;20637;-53
2023/08/26 01:58:58;;;;;;;8.17;7.47;;;19.70;99.90;;;;;;5050489;28;20870;-53
2023/08/26 02:01:26;;;;;;;8.50;7.67;;;19.70;99.90;;;;;;5051137;28;20202;-54
2023/08/26 02:03:52;;;;;;;8.17;7.60;;;19.70;99.90;;;;;;5050907;28;20227;-54
2023/08/26 02:06:20;;;;;;;7.50;6.63;;;19.70;99.90;;;;;;5050104;28;20247;-54
2023/08/26 02:08:47;;;;;;;7.10;6.60;;;19.70;99.90;;;;;;5050983;28;20234;-53
2023/08/26 02:11:14;;;;;;;6.43;6.03;;;19.70;99.90;;;;;;5051273;28;20280;-53
2023/08/26 02:13:43;;;;;;;6.87;6.27;;;19.80;99.90;;;;;;5048733;28;20201;-53
2023/08/26 02:16:10;;;;;;;6.07;5.60;;;19.90;99.90;;;;;;5057924;28;20198;-54
2023/08/26 02:18:37;;;;;;;8.03;7.33;;;19.90;99.90;;;;;;5049469;28;20279;-54
2023/08/26 02:21:04;;;;;;;5.23;4.97;;;19.90;99.90;;;;;;5051120;28;20556;-53
2023/08/26 02:23:31;;;;;;;5.77;5.23;;;19.90;99.90;;;;;;5049483;28;20279;-54
2023/08/26 02:25:58;;;;;;;4.90;4.63;;;19.90;99.90;;;;;;5050997;28;20623;-53
2023/08/26 02:28:25;;;;;;;4.87;4.43;;;19.90;99.90;;;;;;5049627;28;20259;-54
2023/08/26 02:30:54;;;;;;;4.40;4.20;;;19.90;99.90;;;;;;5050268;28;20582;-53
2023/08/26 02:33:22;;;;;;;3.57;3.37;;;19.80;99.90;;;;;;5050232;28;20198;-53
2023/08/26 02:35:49;;;;;;;4.30;3.87;;;19.70;99.90;;;;;;5050911;28;20687;-53
2023/08/26 02:38:16;;;;;;;4.90;4.57;;;19.70;99.90;;;;;;5049536;28;20738;-53
2023/08/26 02:40:51;;;;;;;4.30;4.03;;;19.60;99.90;;;;;;5050651;28;20283;-53
2023/08/26 02:43:18;;;;;;;5.33;4.87;;;19.60;99.90;;;;;;5049098;28;20213;-54
2023/08/26 02:45:45;;;;;;;4.30;4.00;;;19.60;99.90;;;;;;5046559;28;20573;-52
2023/08/26 02:48:16;;;;;;;4.03;3.83;;;19.50;99.90;;;;;;5050480;28;20198;-54
2023/08/26 02:50:43;;;;;;;7.57;4.47;;;19.50;99.90;;;;;;5050743;28;20260;-53
2023/08/26 02:53:09;;;;;;;4.87;4.47;;;19.50;99.90;;;;;;5049955;28;20968;-53
2023/08/26 02:55:38;;;;;;;5.10;4.70;;;19.50;99.90;;;;;;5061324;28;20258;-53
2023/08/26 02:58:05;;;;;;;5.20;4.80;;;19.50;99.90;;;;;;5056521;28;20252;-53
2023/08/26 03:00:33;;;;;;;6.70;4.90;;;19.50;99.90;;;;;;5048540;28;20296;-52
2023/08/26 03:03:00;;;;;;;5.47;5.00;;;19.60;99.90;;;;;;5042829;28;20214;-53
2023/08/26 03:05:28;;;;;;;6.13;5.20;;;19.60;99.90;;;;;;5048333;28;20225;-53
2023/08/26 03:07:55;;;;;;;5.87;5.47;;;19.60;99.90;;;;;;5050772;28;20255;-53
2023/08/26 03:10:22;;;;;;;5.37;4.97;;;19.50;99.90;;;;;;5049460;28;20696;-53
2023/08/26 03:12:49;;;;;;;4.27;3.90;;;19.60;99.90;;;;;;5049979;28;20240;-54
2023/08/26 03:15:16;;;;;;;5.27;4.40;;;19.60;99.90;;;;;;5049507;28;20228;-53
2023/08/26 03:17:43;;;;;;;3.83;3.33;;;19.60;99.90;;;;;;5047655;28;20267;-53
2023/08/26 03:20:11;;;;;;;3.30;3.00;;;19.60;99.90;;;;;;5050246;28;20225;-53
2023/08/26 03:22:39;;;;;;;3.90;3.70;;;19.60;99.90;;;;;;5049688;28;20726;-53
2023/08/26 03:25:06;;;;;;;4.90;4.50;;;19.70;99.90;;;;;;5049692;28;20194;-54
2023/08/26 03:27:33;;;;;;;3.43;2.70;;;19.70;99.90;;;;;;5050406;28;20560;-54
2023/08/26 03:30:00;;;;;;;2.63;2.53;;;19.70;99.90;;;;;;5053219;28;20217;-53
2023/08/26 03:32:27;;;;;;;2.03;1.93;;;19.70;99.90;;;;;;5053331;28;20296;-54
2023/08/26 03:34:54;;;;;;;1.90;1.80;;;19.70;99.90;;;;;;5051175;28;20267;-54
2023/08/26 03:37:21;;;;;;;1.93;1.63;;;19.70;99.90;;;;;;5054076;28;20198;-53
2023/08/26 03:39:50;;;;;;;1.70;1.70;;;19.60;99.90;;;;;;5054056;28;20217;-53
2023/08/26 03:42:17;;;;;;;2.43;2.23;;;19.60;99.90;;;;;;5053361;28;20338;-53
2023/08/26 03:44:44;;;;;;;2.20;2.00;;;19.60;99.90;;;;;;5051999;28;20687;-54
2023/08/26 03:47:11;;;;;;;1.93;1.83;;;19.60;99.90;;;;;;5054016;28;20308;-53
2023/08/26 03:49:37;;;;;;;2.30;2.30;;;19.60;99.90;;;;;;5052159;28;20360;-53
2023/08/26 03:52:05;;;;;;;3.60;2.37;;;19.50;99.90;;;;;;5052192;28;20678;-54
2023/08/26 03:54:32;;;;;;;2.20;2.10;;;19.60;99.90;;;;;;5052876;28;20826;-53
2023/08/26 03:57:00;;;;;;;2.13;2.03;;;19.50;99.90;;;;;;5053476;28;20263;-53
2023/08/26 03:59:27;;;;;;;1.60;1.60;;;19.50;99.90;;;;;;5053522;28;20241;-53
2023/08/26 04:01:54;;;;;;;2.30;2.00;;;19.60;99.90;;;;;;5053751;28;20202;-53
2023/08/26 04:04:21;;;;;;;5.37;1.90;;;19.60;99.90;;;;;;5051652;28;20217;-53
2023/08/26 04:06:48;;;;;;;3.13;2.37;;;19.50;99.90;;;;;;5052465;28;20201;-54
2023/08/26 04:09:15;;;;;;;2.33;2.23;;;19.50;99.90;;;;;;5053288;28;20217;-53
2023/08/26 04:11:42;;;;;;;2.53;2.43;;;19.50;99.90;;;;;;5053355;28;20259;-53
2023/08/26 04:14:11;;;;;;;2.43;2.33;;;19.50;99.90;;;;;;5052138;28;20569;-53
2023/08/26 04:16:38;;;;;;;2.93;2.83;;;19.50;99.90;;;;;;5053075;28;20251;-53
2023/08/26 04:19:05;;;;;;;2.67;2.53;;;19.60;99.90;;;;;;5053200;28;20320;-53
2023/08/26 04:21:32;;;;;;;3.23;3.03;;;19.60;99.90;;;;;;5053238;28;20240;-53
2023/08/26 04:23:59;;;;;;;3.37;3.03;;;19.60;99.90;;;;;;5050163;28;20593;-53
2023/08/26 04:26:26;;;;;;;3.97;3.27;;;19.70;99.90;;;;;;5046661;28;20601;-53
2023/08/26 04:28:53;;;;;;;3.27;3.13;;;19.70;99.90;;;;;;5053030;28;20218;-54
2023/08/26 04:31:22;;;;;;;4.37;3.90;;;19.70;99.90;;;;;;5053017;28;20615;-54
2023/08/26 04:33:49;;;;;;;4.70;4.10;;;19.70;99.90;;;;;;5052217;28;20252;-53
2023/08/26 04:36:16;;;;;;;2.93;2.83;;;19.70;99.90;;;;;;5051070;28;20198;-53
2023/08/26 04:38:43;;;;;;;3.73;3.43;;;19.60;99.90;;;;;;5052126;28;20222;-53
2023/08/26 04:41:10;;;;;;;3.90;3.60;;;19.60;99.90;;;;;;5051684;28;20623;-54
2023/08/26 04:43:37;;;;;;;3.27;3.17;;;19.60;99.90;;;;;;5051407;28;20320;-53
2023/08/26 04:46:04;;;;;;;4.60;4.30;;;19.60;99.90;;;;;;5049728;28;20198;-54
2023/08/26 04:48:33;;;;;;;4.23;3.90;;;19.60;99.90;;;;;;5052532;28;20309;-53
2023/08/26 04:51:00;;;;;;;4.27;3.90;;;19.60;99.90;;;;;;5052603;28;20205;-53
2023/08/26 04:53:27;;;;;;;3.90;3.60;;;19.60;99.90;;;;;;5050335;28;20198;-53
2023/08/26 04:55:54;;;;;;;4.27;3.97;;;19.60;99.90;;;;;;5051491;28;20213;-53
2023/08/26 04:58:21;;;;;;;4.17;3.87;;;19.60;99.90;;;;;;5052376;28;20202;-54
2023/08/26 05:00:48;;;;;;;5.83;4.83;;;19.60;99.90;;;;;;5052539;28;20267;-53
2023/08/26 05:03:15;;;;;;;4.50;4.30;;;19.70;99.90;;;;;;5051617;28;20275;-53
2023/08/26 05:05:43;;;;;;;4.70;4.40;;;19.70;99.90;;;;;;5049166;28;20544;-54
2023/08/26 05:08:14;;;;;;;5.90;5.47;;;19.70;99.90;;;;;;5051940;28;20205;-54
2023/08/26 05:10:41;;;;;;;5.07;4.80;;;19.70;99.90;;;;;;5052288;28;20228;-54
2023/08/26 05:13:08;;;;;;;4.33;4.10;;;19.70;99.90;;;;;;5051616;28;20244;-53
2023/08/26 05:15:35;;;;;;;6.00;4.83;;;19.70;99.90;;;;;;5051117;28;20197;-53
2023/08/26 05:18:03;;;;;;;4.30;4.10;;;19.70;99.90;;;;;;5051873;28;20198;-53
2023/08/26 05:20:30;;;;;;;4.73;4.40;;;19.70;99.90;;;;;;5052252;28;20226;-54
2023/08/26 05:22:58;;;;;;;5.17;4.67;;;19.70;99.90;;;;;;5044923;28;20228;-54
2023/08/26 05:25:25;;;;;;;4.80;4.40;;;19.70;99.90;;;;;;5051857;28;20275;-54
2023/08/26 05:27:52;;;;;;;5.27;4.80;;;19.70;99.90;;;;;;5050882;28;20197;-54
2023/08/26 05:30:20;;;;;;;4.73;4.33;;;19.70;99.90;;;;;;5051073;28;20710;-54
2023/08/26 05:32:47;;;;;;;4.93;4.47;;;19.70;99.90;;;;;;5049292;28;20660;-54
2023/08/26 05:35:14;;;;;;;4.47;4.17;;;19.70;99.90;;;;;;5049192;28;20198;-54
2023/08/26 05:37:44;;;;;;;4.53;4.20;;;19.70;99.90;;;;;;5049894;28;20248;-53
2023/08/26 05:40:14;;;;;;;3.83;3.63;;;19.80;99.90;;;;;;5044785;28;20607;-54
2023/08/26 05:42:41;;;;;;;3.17;3.03;;;19.80;99.90;;;;;;5050358;28;20198;-53
2023/08/26 05:45:08;;;;;;;4.40;4.03;;;19.80;99.90;;;;;;5046501;28;20280;-54
2023/08/26 05:47:35;;;;;;;3.63;3.20;;;19.80;99.90;;;;;;5045435;28;20206;-53
2023/08/26 05:50:03;;;;;;;3.80;3.60;;;19.90;99.90;;;;;;5046594;28;20835;-53
2023/08/26 05:52:30;;;;;;;3.87;3.67;;;20.00;99.90;;;;;;5047795;28;20255;-54
2023/08/26 05:54:57;;;;;;;3.60;3.40;;;20.20;99.90;;;;;;5044750;28;20676;-53
2023/08/26 05:57:25;;;;;;;4.47;3.63;;;20.30;99.90;;;;;;5041645;28;20274;-53
2023/08/26 05:59:52;;;;;;;3.17;2.87;;;20.40;99.90;;;;;;5051381;28;20218;-54
2023/08/26 06:02:20;;;;;;;3.23;3.13;;;20.50;99.90;;;;;;5048439;28;20663;-53
2023/08/26 06:04:47;;;;;;;3.40;3.10;;;20.60;99.90;;;;;;5045177;28;20251;-53
2023/08/26 06:07:14;;;;;;;3.67;3.43;;;20.60;99.90;;;;;;5044847;28;20660;-53
2023/08/26 06:09:40;;;;;;;2.90;2.70;;;21.00;99.90;;;;;;5037587;28;20225;-54
2023/08/26 06:12:08;;;;;;;3.20;3.00;;;22.10;99.90;;;;;;5047241;28;20206;-54
2023/08/26 06:14:36;;;;;;;2.57;2.47;;;22.80;99.90;;;;;;5046647;28;20202;-52
2023/08/26 06:17:04;;;;;;;2.90;2.77;;;23.90;99.90;;;;;;5050900;28;20193;-52
2023/08/26 06:19:31;;;;;;;2.47;2.37;;;24.90;99.90;;;;;;5048678;28;20225;-52
2023/08/26 06:21:58;;;;;;;3.60;2.83;;;25.60;99.90;;;;;;5047967;28;20620;-53
2023/08/26 06:24:26;;;;;;;2.80;2.67;;;26.00;99.90;;;;;;5050237;28;20271;-53
2023/08/26 06:26:56;;;;;;;2.73;2.53;;;26.80;99.90;;;;;;5051147;28;20193;-53
2023/08/26 06:29:25;;;;;;;3.90;3.60;;;26.90;99.90;;;;;;5047355;28;20225;-53
2023/08/26 06:31:55;;;;;;;4.65;3.50;;;27.30;99.90;;;;;;5050307;28;20200;-53
2023/08/26 06:34:23;;;;;;;2.72;2.63;;;27.40;99.90;;;;;;5049321;28;20277;-53
2023/08/26 06:36:50;;;;;;;2.78;2.53;;;28.00;99.90;;;;;;5050623;28;20197;-53
2023/08/26 06:39:17;;;;;;;2.75;2.65;;;28.30;99.90;;;;;;5050072;28;20233;-53
2023/08/26 06:41:44;;;;;;;2.17;2.08;;;27.90;99.90;;;;;;5053491;28;20202;-53
2023/08/26 06:44:11;;;;;;;2.55;2.45;;;26.90;99.90;;;;;;5043580;28;20767;-53
2023/08/26 06:46:40;;;;;;;2.17;2.08;;;25.70;99.90;;;;;;5047370;28;20623;-53
2023/08/26 06:49:11;;;;;;;2.95;2.75;;;24.90;99.90;;;;;;5050806;28;20226;-54
2023/08/26 06:51:38;;;;;;;2.80;2.55;;;24.40;99.90;;;;;;5050132;28;20365;-55
2023/08/26 06:54:06;;;;;;;2.53;2.42;;;23.90;99.90;;;;;;5048590;28;20679;-54
2023/08/26 06:56:33;;;;;;;1.90;1.80;;;24.00;99.90;;;;;;5047206;28;20216;-55
2023/08/26 06:59:00;;;;;;;2.17;2.08;;;24.30;99.90;;;;;;5046669;28;20217;-54
2023/08/26 07:01:28;;;;;;;2.73;2.37;;;24.40;99.90;;;;;;5050185;28;21063;-54
2023/08/26 07:04:03;;;;;;;2.57;2.27;;;24.40;99.90;;;;;;5049901;28;20304;-54
2023/08/26 07:06:31;;;;;;;1.93;1.83;;;25.00;99.90;;;;;;5053414;28;20197;-53
2023/08/26 07:08:58;;;;;;;1.93;1.90;;;25.00;99.90;;;;;;5053269;28;20229;-54
2023/08/26 07:11:25;;;;;;;1.80;1.80;;;25.00;99.90;;;;;;5063053;28;20330;-56
2023/08/26 07:13:52;;;;;;;4.20;2.30;;;24.70;99.90;;;;;;5052422;28;20260;-54
2023/08/26 07:16:19;;;;;;;2.00;1.90;;;24.60;99.90;;;;;;5054052;28;20274;-54
2023/08/26 07:18:46;;;;;;;2.23;2.13;;;24.50;99.90;;;;;;5054298;28;20230;-53
2023/08/26 07:21:15;;;;;;;2.77;2.57;;;24.70;99.90;;;;;;5052657;28;20202;-53
2023/08/26 07:23:43;;;;;;;2.47;2.33;;;25.10;99.90;;;;;;5052590;28;20217;-53
2023/08/26 07:26:10;;;;;;;2.33;1.70;;;26.10;99.90;;;;;;5048569;28;20267;-53
2023/08/26 07:28:37;;;;;;;1.50;1.43;;;26.70;99.90;;;;;;5056630;28;20274;-54
2023/08/26 07:31:09;;;;;;;2.28;2.08;;;26.50;99.90;;;;;;5063937;28;20205;-53
2023/08/26 07:33:36;;;;;;;2.30;2.20;;;26.30;99.90;;;;;;5073489;28;20208;-53
2023/08/26 07:36:03;;;;;;;3.03;2.00;;;26.20;99.90;;;;;;5056126;28;20198;-53
2023/08/26 07:38:31;;;;;;;6.28;2.00;;;27.10;99.90;;;;;;5061254;28;20213;-53
2023/08/26 07:40:59;;;;;;;2.28;2.17;;;27.60;99.90;;;;;;5072431;28;20308;-53
2023/08/26 07:43:26;;;;;;;2.03;1.92;;;28.70;99.90;;;;;;5073263;28;20736;-52
2023/08/26 07:45:53;;;;;;;2.53;1.63;;;29.00;99.90;;;;;;5046252;28;20646;-53
2023/08/26 07:48:20;;;;;;;1.48;1.38;;;29.30;99.90;;;;;;5055496;28;20667;-54
2023/08/26 07:50:47;;;;;;;3.25;1.52;;;29.90;99.90;;;;;;5053813;28;20675;-54
2023/08/26 07:53:14;;;;;;;3.10;1.80;;;30.60;99.90;;;;;;5049088;28;20225;-53
2023/08/26 07:55:41;;;;;;;1.48;1.48;;;30.80;99.90;;;;;;5036987;28;20245;-54
2023/08/26 07:58:10;;;;;;;1.83;1.83;;;31.30;99.90;;;;;;5035944;28;20202;-53
2023/08/26 08:00:37;;;;;;;1.90;1.80;;;31.30;99.90;;;;;;5046891;28;20289;-54
2023/08/26 08:03:04;;;;;;;1.58;1.48;;;31.60;99.90;;;;;;5052569;28;20247;-54
2023/08/26 08:05:31;;;;;;;1.48;1.48;;;31.90;99.90;;;;;;5053496;28;20230;-56
2023/08/26 08:07:58;;;;;;;1.35;1.35;;;32.10;99.90;;;;;;5052902;28;20205;-56
2023/08/26 08:10:25;;;;;;;1.65;1.65;;;32.10;99.90;;;;;;5052736;28;20271;-55
2023/08/26 08:12:52;;;;;;;2.00;1.90;;;32.10;99.90;;;;;;5050307;28;20263;-55
2023/08/26 08:15:20;;;;;;;2.25;2.15;;;32.10;99.90;;;;;;5050390;28;20206;-54
2023/08/26 08:17:47;;;;;;;2.25;2.15;;;32.20;99.90;;;;;;5049619;28;20209;-55
2023/08/26 08:20:14;;;;;;;1.63;1.30;;;32.40;99.90;;;;;;5050615;28;20252;-55
2023/08/26 08:22:43;;;;;;;1.52;1.52;;;31.30;99.90;;;;;;5051192;28;20209;-54
2023/08/26 08:25:11;;;;;;;1.35;1.33;;;30.30;99.90;;;;;;5043718;28;20291;-55
2023/08/26 08:27:38;;;;;;;3.75;1.35;;;29.60;99.90;;;;;;5050908;28;20287;-55
2023/08/26 08:30:07;;;;;;;1.67;1.60;;;29.20;99.90;;;;;;5050648;28;20286;-54
2023/08/26 08:32:35;;;;;;;2.10;2.00;;;28.60;99.90;;;;;;5052180;28;20247;-55
2023/08/26 08:35:03;;;;;;;1.85;1.75;;;27.80;99.90;;;;;;5050613;28;20267;-55
2023/08/26 08:37:30;;;;;;;7.75;2.00;;;27.40;99.90;;;;;;5052328;28;20256;-55
2023/08/26 08:39:58;;;;;;;2.17;2.00;;;27.10;99.90;;;;;;5052165;28;20222;-55
2023/08/26 08:42:26;;;;;;;2.90;2.72;;;27.00;99.90;;;;;;5048569;28;20233;-54
2023/08/26 08:44:55;;;;;;;7.90;4.22;;;26.90;99.90;;;;;;5048942;28;20260;-55
2023/08/26 08:47:22;;;;;;;5.10;3.63;;;26.70;99.90;;;;;;5050671;28;20206;-54
2023/08/26 08:49:50;;;;;;;1.58;1.50;;;26.90;99.90;;;;;;5049285;28;20297;-55
2023/08/26 08:52:20;;;;;;;4.72;1.60;;;26.90;99.90;;;;;;5050472;28;20297;-54
2023/08/26 08:54:47;;;;;;;1.83;1.73;;;26.90;99.90;;;;;;5048236;28;20248;-54
2023/08/26 08:57:16;;;;;;;3.17;2.30;;;26.90;99.90;;;;;;5051254;28;20247;-54
2023/08/26 08:59:46;;;;;;;2.67;1.75;;;27.00;99.90;;;;;;5049128;28;20305;-56
2023/08/26 09:02:14;;;;;;;2.17;2.00;;;27.00;99.90;;;;;;5049840;28;20202;-55
2023/08/26 09:04:42;;;;;;;1.65;1.50;;;26.80;99.90;;;;;;5049608;28;20599;-55
2023/08/26 09:07:12;;;;;;;4.25;2.33;;;26.60;99.90;;;;;;5048654;28;20194;-56
2023/08/26 09:09:39;;;;;;;3.28;2.10;;;26.80;99.90;;;;;;5050872;28;20622;-55
2023/08/26 09:12:07;;;;;;;2.13;2.03;;;26.80;99.90;;;;;;5050559;28;20227;-55
2023/08/26 09:14:34;;;;;;;2.22;2.20;;;27.00;99.90;;;;;;5051195;28;20301;-54
2023/08/26 09:17:15;;;;;;;2.20;2.10;;;27.10;99.90;;;;;;5050113;28;20667;-55
2023/08/26 09:19:52;;;;;;;2.88;2.55;;;27.20;99.90;;;;;;5050814;28;20305;-55
2023/08/26 09:22:20;;;;;;;2.47;2.28;;;27.20;99.90;;;;;;5051031;28;20292;-54
2023/08/26 09:24:47;;;;;;;3.45;3.25;;;27.20;99.90;;;;;;5051234;28;20765;-55
2023/08/26 09:27:16;;;;;;;2.75;2.33;;;26.80;99.90;;;;;;5049918;28;20540;-55
2023/08/26 09:29:44;;;;;;;3.47;3.17;;;26.80;99.90;;;;;;5052024;28;20297;-55
2023/08/26 09:32:11;;;;;;;2.53;2.42;;;27.00;99.90;;;;;;5050128;28;20260;-54
2023/08/26 09:34:38;;;;;;;2.72;2.50;;;27.10;99.90;;;;;;5050137;28;20240;-55
2023/08/26 09:37:08;;;;;;;2.80;2.28;;;26.90;99.90;;;;;;5051690;28;20675;-55
2023/08/26 09:39:45;;;;;;;2.60;2.45;;;27.10;99.90;;;;;;5050983;28;20304;-55
2023/08/26 09:42:13;;;;;;;5.05;2.58;;;27.10;99.90;;;;;;5051145;28;20747;-54
2023/08/26 09:44:41;;;;;;;3.15;2.90;;;27.10;99.90;;;;;;5049321;28;20300;-55
2023/08/26 09:47:12;;;;;;;3.17;3.00;;;27.10;99.90;;;;;;5051061;28;20204;-54
2023/08/26 09:49:39;;;;;;;5.20;3.72;;;27.10;99.90;;;;;;5048917;28;20283;-54
2023/08/26 09:52:07;;;;;;;7.82;3.88;;;27.20;99.90;;;;;;5050628;28;20277;-55
2023/08/26 09:54:36;;;;;;;3.72;3.50;;;27.10;99.90;;;;;;5051749;28;20248;-54
2023/08/26 09:57:03;;;;;;;3.92;3.30;;;27.10;99.90;;;;;;5051098;28;20283;-55
2023/08/26 09:59:30;;;;;;;3.75;3.28;;;26.50;99.90;;;;;;5051405;28;20229;-54
2023/08/26 10:02:01;;;;;;;6.60;3.03;;;26.30;99.90;;;;;;5049578;28;20213;-54
2023/08/26 10:04:33;;;;;;;4.07;2.75;;;26.40;99.90;;;;;;5050229;28;20259;-54
2023/08/26 10:07:02;;;;;;;4.63;3.47;;;26.60;99.90;;;;;;5049110;28;20577;-54
2023/08/26 10:09:36;;;;;;;4.32;3.92;;;26.60;99.90;;;;;;5051265;28;20253;-53
2023/08/26 10:12:08;;;;;;;7.18;3.83;;;26.80;99.90;;;;;;5051082;28;20567;-53
2023/08/26 10:14:38;;;;;;;4.13;3.55;;;26.80;99.90;;;;;;5051220;28;20194;-53
2023/08/26 10:17:07;;;;;;;5.53;3.75;;;26.90;99.90;;;;;;5048370;28;20636;-52
2023/08/26 10:19:35;;;;;;;3.92;3.55;;;26.70;99.90;;;;;;5050915;28;20640;-53
2023/08/26 10:22:05;;;;;;;4.70;4.25;;;26.20;99.90;;;;;;5050788;28;20613;-53
2023/08/26 10:24:32;;;;;;;4.97;4.03;;;25.80;99.90;;;;;;5050989;28;20308;-53
2023/08/26 10:26:59;;;;;;;6.50;4.00;;;25.80;99.90;;;;;;5050200;28;20704;-53
2023/08/26 10:29:28;;;;;;;6.87;4.33;;;25.90;99.90;;;;;;5050843;28;20252;-53
2023/08/26 10:31:55;;;;;;;7.13;3.33;;;26.20;99.90;;;;;;5049762;28;20625;-53
2023/08/26 10:34:21;;;;;;;7.87;3.67;;;26.10;99.90;;;;;;5050361;28;20289;-53
2023/08/26 10:36:49;;;;;;;5.37;3.70;;;26.00;99.90;;;;;;5048004;28;20570;-53
2023/08/26 10:39:18;;;;;;;7.27;4.00;;;26.10;99.90;;;;;;5048493;28;20310;-53
2023/08/26 10:42:12;;;;;;;4.07;3.67;;;25.90;99.90;;;;;;5050673;28;20197;-53
2023/08/26 10:44:43;;;;;;;4.90;3.60;;;25.60;99.90;;;;;;5050872;28;20237;-53
2023/08/26 10:47:11;;;;;;;7.55;4.45;;;25.70;99.90;;;;;;5050091;28;20453;-56
2023/08/26 10:49:38;;;;;;;8.00;4.67;;;26.10;99.90;;;;;;5048434;28;20308;-58
2023/08/26 10:52:10;;;;;;;4.38;4.07;;;26.30;99.90;;;;;;5049249;28;20575;-58
2023/08/26 10:54:37;;;;;;;4.43;4.13;;;26.40;99.90;;;;;;5045996;28;20272;-58
2023/08/26 10:57:07;;;;;;;4.47;3.90;;;26.60;99.90;;;;;;5050228;28;20193;-59
2023/08/26 10:59:38;;;;;;;3.80;3.50;;;26.40;99.90;;;;;;5050706;28;20221;-59
2023/08/26 11:02:11;;;;;;;5.10;4.50;;;25.90;99.90;;;;;;5047212;28;20220;-58
2023/08/26 11:04:43;;;;;;;5.43;4.90;;;25.50;99.90;;;;;;5048657;28;20202;-58
2023/08/26 11:07:16;;;;;;;5.40;4.47;;;25.50;99.90;;;;;;5050595;28;20601;-59
2023/08/26 11:09:43;;;;;;;4.93;4.50;;;25.30;99.90;;;;;;5050311;28;20267;-58
2023/08/26 11:12:24;;;;;;;7.40;3.93;;;25.10;99.90;;;;;;5045928;28;20198;-55
2023/08/26 11:14:51;;;;;;;4.90;4.43;;;24.90;99.90;;;;;;5045610;28;20233;-52
2023/08/26 11:17:20;;;;;;;4.37;3.17;;;24.70;99.90;;;;;;5048329;28;20617;-52
2023/08/26 11:19:47;;;;;;;4.10;3.80;;;24.70;99.90;;;;;;5045218;28;20220;-52
2023/08/26 11:22:15;;;;;;;4.23;3.33;;;24.60;99.90;;;;;;5038281;28;20214;-52
2023/08/26 11:24:48;;;;;;;5.83;4.20;;;24.60;99.90;;;;;;5048753;28;20268;-52
2023/08/26 11:27:15;;;;;;;5.23;4.27;;;24.40;99.90;;;;;;5052563;28;20210;-52
2023/08/26 11:29:42;;;;;;;4.77;4.23;;;24.40;99.90;;;;;;5040846;28;20594;-52
2023/08/26 11:32:10;;;;;;;6.10;3.97;;;24.30;99.90;;;;;;5044526;28;20210;-52
2023/08/26 11:34:38;;;;;;;6.23;3.50;;;24.20;99.90;;;;;;5045277;28;20206;-52
2023/08/26 11:37:05;;;;;;;6.53;3.13;;;24.10;99.90;;;;;;5043861;28;20202;-52
2023/08/26 11:39:35;;;;;;;3.77;3.07;;;23.80;99.90;;;;;;5048315;28;20218;-52
2023/08/26 11:42:11;;;;;;;4.20;3.10;;;23.80;99.90;;;;;;5045424;28;20214;-52
2023/08/26 11:44:38;;;;;;;3.33;3.13;;;23.80;99.90;;;;;;5042929;28;20205;-52
2023/08/26 11:47:08;;;;;;;6.00;2.53;;;23.70;99.90;;;;;;5045697;28;20217;-52
2023/08/26 11:49:35;;;;;;;3.67;3.30;;;23.60;99.90;;;;;;5046101;28;20245;-51
2023/08/26 11:52:05;;;;;;;4.10;3.27;;;23.60;99.90;;;;;;5050042;28;20210;-51
2023/08/26 11:54:32;;;;;;;3.30;3.10;;;23.60;99.90;;;;;;5053179;28;20216;-51
2023/08/26 11:57:01;;;;;;;3.90;3.10;;;23.50;99.90;;;;;;5053592;28;20228;-52
2023/08/26 11:59:39;;;;;;;5.87;3.93;;;23.40;99.90;;;;;;5050228;28;20245;-51
2023/08/26 12:02:22;;;;;;;3.13;2.93;;;23.40;99.90;;;;;;5049527;28;20206;-52
2023/08/26 12:04:57;;;;;;;10.57;4.73;;;23.40;99.90;;;;;;5049479;28;20710;-51
2023/08/26 12:07:26;;;;;;;15.10;4.60;;;23.40;99.90;;;;;;5052079;28;20236;-52
2023/08/26 12:09:53;;;;;;;11.27;5.90;;;23.40;99.90;;;;;;5050079;28;20248;-52
2023/08/26 12:12:21;;;;;;;13.80;5.10;;;23.40;99.90;;;;;;5052527;28;20202;-52
2023/08/26 12:14:48;;;;;;;6.07;3.53;;;23.30;99.90;;;;;;5052635;28;20202;-51
2023/08/26 12:17:16;;;;;;;5.17;4.03;;;23.40;99.90;;;;;;5048705;28;20256;-52
2023/08/26 12:19:43;;;;;;;5.00;3.73;;;23.30;99.90;;;;;;5052639;28;20222;-52
2023/08/26 12:22:12;;;;;;;3.77;3.50;;;23.30;99.90;;;;;;5049981;28;20284;-52
2023/08/26 12:24:40;;;;;;;9.67;3.77;;;23.20;99.90;;;;;;5052170;28;20198;-52
2023/08/26 12:27:08;;;;;;;4.33;3.87;;;23.20;99.90;;;;;;5050436;28;20279;-52
2023/08/26 12:29:36;;;;;;;6.30;3.73;;;23.10;99.90;;;;;;5048980;28;20308;-52
2023/08/26 12:32:04;;;;;;;4.20;2.90;;;23.20;99.90;;;;;;5049857;28;20263;-52
2023/08/26 12:34:31;;;;;;;3.97;3.70;;;23.20;99.90;;;;;;5052630;28;20198;-52
2023/08/26 12:36:58;;;;;;;7.57;3.50;;;23.20;99.90;;;;;;5042355;28;20264;-52
2023/08/26 12:39:25;;;;;;;6.67;3.60;;;23.10;99.90;;;;;;5032756;28;20240;-52
2023/08/26 12:41:54;;;;;;;9.03;4.33;;;23.10;99.90;;;;;;5051386;28;20779;-52
2023/08/26 12:44:23;;;;;;;4.93;4.47;;;23.00;99.90;;;;;;5054462;28;20198;-52
2023/08/26 12:46:50;;;;;;;4.37;3.97;;;23.00;99.90;;;;;;5051981;28;20213;-52
2023/08/26 12:49:18;;;;;;;5.43;5.03;;;22.70;99.90;;;;;;5049928;28;20213;-52
2023/08/26 12:51:48;;;;;;;5.43;3.93;;;22.50;99.90;;;;;;5052352;28;20256;-52